Time;durP1;ratioP1;P1;durP2;ratioP2;P2;SDS_P1;SDS_P2;PMS_P1;PMS_P2;Temp;Humidity;BMP_temperature;BMP_pressure;BME280_temperature;BME280_humidity;BME280_pressure;Samples;Min_cycle;Max_cycle;Signal;HPM_P1;HPM_P2
2023/12/12 00:03:33;;;;;;;5.28;5.07;;;;;;;;;;6329763;27;20038;-96
2023/12/12 00:07:27;;;;;;;5.07;4.87;;;;;;;;;;6329212;27;20040;-96
2023/12/12 00:11:41;;;;;;;4.97;4.83;;;;;;;;;;6342537;27;20043;-96
2023/12/12 00:15:48;;;;;;;;;;;;;;;;;;;;;
2023/12/12 00:19:14;;;;;;;6.38;6.07;;;;;;;;;;6204282;28;20249;-96
2023/12/12 00:23:19;;;;;;;4.70;4.60;;;;;;;;;;6187477;28;20423;-96
2023/12/12 00:26:45;;;;;;;4.55;4.45;;;;;;;;;;6151901;28;20039;-96
2023/12/12 00:29:51;;;;;;;4.30;4.20;;;;;;;;;;6164303;28;20114;-96
2023/12/12 00:33:11;;;;;;;4.57;4.47;;;;;;;;;;6168879;28;20054;-96
2023/12/12 00:36:21;;;;;;;4.55;4.45;;;;;;;;;;6166629;28;20046;-96
2023/12/12 00:39:23;;;;;;;5.20;5.00;;;;;;;;;;6169949;28;20046;-96
2023/12/12 00:42:58;;;;;;;5.65;5.38;;;;;;;;;;6167628;28;20509;-96
2023/12/12 00:55:14;;;;;;;5.15;4.95;;;;;;;;;;6194064;28;20420;-96
2023/12/12 00:58:38;;;;;;;5.13;4.93;;;;;;;;;;6160791;28;20043;-96
2023/12/12 01:02:25;;;;;;;4.90;4.80;;;;;;;;;;6175335;28;20053;-96
2023/12/12 01:06:39;;;;;;;4.32;4.22;;;;;;;;;;4134558;26;20493;-96
2023/12/12 01:10:22;;;;;;;5.65;5.45;;;;;;;;;;6181149;28;20039;-96
2023/12/12 01:18:12;;;;;;;5.40;5.20;;;;;;;;;;6099736;29;20075;-96
2023/12/12 01:21:25;;;;;;;4.93;4.72;;;;;;;;;;6118798;29;20511;-96
2023/12/12 01:24:52;;;;;;;4.95;4.80;;;;;;;;;;6121158;29;20138;-96
2023/12/12 01:28:26;;;;;;;4.88;4.70;;;;;;;;;;6130357;29;20447;-96
2023/12/12 01:31:32;;;;;;;4.43;4.25;;;;;;;;;;6111390;29;20050;-96
2023/12/12 01:35:04;;;;;;;4.57;4.45;;;;;;;;;;6116796;29;20063;-96
2023/12/12 01:38:11;;;;;;;5.00;4.85;;;;;;;;;;6105768;29;20138;-96
2023/12/12 01:41:14;;;;;;;3.88;3.78;;;;;;;;;;6113013;29;20052;-96
2023/12/12 01:44:16;;;;;;;5.32;5.03;;;;;;;;;;6120521;29;20055;-96
2023/12/12 01:47:20;;;;;;;5.00;4.65;;;;;;;;;;6115983;29;20043;-96
2023/12/12 01:50:25;;;;;;;5.80;5.25;;;;;;;;;;6134576;28;20413;-96
2023/12/12 01:53:43;;;;;;;4.88;4.65;;;;;;;;;;6170355;28;20528;-96
2023/12/12 01:56:48;;;;;;;4.45;4.30;;;;;;;;;;6170212;28;20051;-96
2023/12/12 02:00:05;;;;;;;5.05;4.85;;;;;;;;;;6163000;28;20055;-95
2023/12/12 02:03:46;;;;;;;4.78;4.63;;;;;;;;;;6171234;28;20514;-96
2023/12/12 02:07:02;;;;;;;4.85;4.75;;;;;;;;;;6168266;28;21026;-96
2023/12/12 02:10:20;;;;;;;4.63;4.53;;;;;;;;;;6170629;28;20339;-96
2023/12/12 02:13:46;;;;;;;5.07;4.88;;;;;;;;;;6148536;28;20507;-96
2023/12/12 02:17:05;;;;;;;;;;;;;;;;;;6176339;28;20051;-96
2023/12/12 02:20:37;;;;;;;6.10;5.90;;;;;;;;;;6100368;29;19938;-96
2023/12/12 02:24:07;;;;;;;4.20;4.10;;;;;;;;;;6095341;29;20196;-96
2023/12/12 02:27:31;;;;;;;4.28;4.18;;;;;;;;;;6098542;29;20066;-96
2023/12/12 02:30:55;;;;;;;4.95;4.75;;;;;;;;;;6072396;29;20501;-96
2023/12/12 02:34:17;;;;;;;4.28;4.18;;;;;;;;;;6183074;28;20077;-96
2023/12/12 02:37:22;;;;;;;4.47;4.28;;;;;;;;;;6185169;28;20042;-96
2023/12/12 02:40:30;;;;;;;4.35;4.25;;;;;;;;;;6171367;28;20050;-96
2023/12/12 02:44:18;;;;;;;5.63;5.43;;;;;;;;;;6164062;28;20051;-96
2023/12/12 02:47:22;;;;;;;6.53;5.05;;;;;;;;;;6184051;28;20420;-96
2023/12/12 02:50:45;;;;;;;5.82;5.53;;;;;;;;;;6172467;28;20045;-96
2023/12/12 02:54:24;;;;;;;5.22;5.03;;;;;;;;;;6187938;28;20070;-96
2023/12/12 02:57:36;;;;;;;4.40;4.30;;;;;;;;;;6169581;28;20386;-96
2023/12/12 03:00:43;;;;;;;5.18;4.97;;;;;;;;;;6166026;28;20162;-96
2023/12/12 03:03:51;;;;;;;5.25;5.05;;;;;;;;;;6173777;28;20237;-96
2023/12/12 03:07:16;;;;;;;5.18;4.97;;;;;;;;;;6171551;28;20059;-96
2023/12/12 03:10:18;;;;;;;4.93;4.75;;;;;;;;;;6187527;28;20418;-96
2023/12/12 03:13:25;;;;;;;5.80;5.60;;;;;;;;;;6171778;28;20055;-96
2023/12/12 03:16:36;;;;;;;4.78;4.60;;;;;;;;;;6170039;28;20181;-96
2023/12/12 03:19:43;;;;;;;6.13;5.60;;;;;;;;;;6169949;28;20043;-95
2023/12/12 03:22:47;;;;;;;6.18;5.88;;;;;;;;;;6169603;28;20429;-96
2023/12/12 03:26:18;;;;;;;6.40;6.20;;;;;;;;;;6167761;28;20145;-96
2023/12/12 03:29:41;;;;;;;4.40;4.30;;;;;;;;;;6175209;28;20051;-96
2023/12/12 03:33:40;;;;;;;5.32;5.13;;;;;;;;;;6171583;28;20051;-96
2023/12/12 03:36:43;;;;;;;4.93;4.78;;;;;;;;;;6170786;28;20046;-96
2023/12/12 03:39:50;;;;;;;4.10;4.00;;;;;;;;;;6160662;28;20055;-96
2023/12/12 03:42:53;;;;;;;4.85;4.72;;;;;;;;;;6170711;28;20065;-96
2023/12/12 03:46:14;;;;;;;5.65;5.45;;;;;;;;;;6169322;28;20177;-96
2023/12/12 03:49:36;;;;;;;5.57;5.07;;;;;;;;;;6094876;29;20048;-96
2023/12/12 03:52:39;;;;;;;5.22;5.03;;;;;;;;;;6125228;29;20059;-96
2023/12/12 03:56:01;;;;;;;;;;;;;;;;;;;;;
2023/12/12 03:59:35;;;;;;;6.25;5.95;;;;;;;;;;6111356;29;20388;-96
2023/12/12 04:02:51;;;;;;;7.10;6.47;;;;;;;;;;6110296;29;20142;-96
2023/12/12 04:06:20;;;;;;;6.30;5.90;;;;;;;;;;6102247;29;20114;-96
2023/12/12 04:09:47;;;;;;;17.45;5.45;;;;;;;;;;6098584;29;20131;-96
2023/12/12 04:13:22;;;;;;;5.15;4.85;;;;;;;;;;6128239;29;20153;-96
2023/12/12 04:16:44;;;;;;;5.72;5.53;;;;;;;;;;6120016;29;20107;-96
2023/12/12 04:20:50;;;;;;;4.22;4.13;;;;;;;;;;6121142;29;20142;-96
2023/12/12 04:24:23;;;;;;;4.47;4.32;;;;;;;;;;6091924;29;20072;-96
2023/12/12 04:27:51;;;;;;;5.75;5.55;;;;;;;;;;6122343;29;20071;-96
2023/12/12 04:31:16;;;;;;;5.85;5.53;;;;;;;;;;6118324;29;20051;-96
2023/12/12 04:35:19;;;;;;;5.20;5.00;;;;;;;;;;6124630;29;20514;-96
2023/12/12 04:38:48;;;;;;;4.45;4.35;;;;;;;;;;6154117;23;20063;-96
2023/12/12 04:41:52;;;;;;;5.20;5.00;;;;;;;;;;6159782;29;20046;-96
2023/12/12 04:45:45;;;;;;;6.57;5.72;;;;;;;;;;6144608;29;20426;-96
2023/12/12 04:49:58;;;;;;;6.43;5.97;;;;;;;;;;6146780;29;20044;-96
2023/12/12 04:53:41;;;;;;;4.53;4.40;;;;;;;;;;6162460;28;20583;-96
2023/12/12 04:56:56;;;;;;;4.47;4.38;;;;;;;;;;6145123;28;20162;-96
2023/12/12 05:00:16;;;;;;;4.85;4.72;;;;;;;;;;6135244;28;20108;-96
2023/12/12 05:03:32;;;;;;;4.82;4.70;;;;;;;;;;6139581;28;20394;-96
2023/12/12 05:07:04;;;;;;;5.85;5.65;;;;;;;;;;6148764;28;20478;-96
2023/12/12 05:10:33;;;;;;;5.32;5.13;;;;;;;;;;6170105;28;20642;-96
2023/12/12 05:14:02;;;;;;;3.75;3.65;;;;;;;;;;6129106;29;20039;-96
2023/12/12 05:17:16;;;;;;;4.57;4.47;;;;;;;;;;6144345;29;20540;-96
2023/12/12 05:20:18;;;;;;;4.90;4.70;;;;;;;;;;6126306;29;20553;-96
2023/12/12 05:23:25;;;;;;;5.30;4.90;;;;;;;;;;6129530;29;20199;-96
2023/12/12 05:26:34;;;;;;;5.00;4.80;;;;;;;;;;6115839;29;20047;-96
2023/12/12 05:29:37;;;;;;;4.10;4.00;;;;;;;;;;6128825;29;20107;-96
2023/12/12 05:32:41;;;;;;;5.65;5.38;;;;;;;;;;6141881;29;20071;-96
2023/12/12 05:35:48;;;;;;;6.43;6.18;;;;;;;;;;6143293;29;20066;-96
2023/12/12 05:39:04;;;;;;;5.75;5.55;;;;;;;;;;6141871;28;20074;-96
2023/12/12 05:42:34;;;;;;;5.40;5.20;;;;;;;;;;6146417;28;20319;-96
2023/12/12 05:46:10;;;;;;;5.03;4.82;;;;;;;;;;6133281;29;20057;-96
2023/12/12 05:49:28;;;;;;;4.82;4.72;;;;;;;;;;6127282;29;20525;-96
2023/12/12 05:52:44;;;;;;;8.25;5.80;;;;;;;;;;6141970;29;20051;-96
2023/12/12 05:55:50;;;;;;;5.22;5.03;;;;;;;;;;6125002;29;20058;-96
2023/12/12 05:58:55;;;;;;;5.25;5.00;;;;;;;;;;6133008;29;20868;-96
2023/12/12 06:01:57;;;;;;;5.75;5.55;;;;;;;;;;6143825;29;20979;-96
2023/12/12 06:05:07;;;;;;;5.38;5.10;;;;;;;;;;6119045;29;20055;-96
2023/12/12 06:08:11;;;;;;;5.25;5.05;;;;;;;;;;6144299;28;20487;-96
2023/12/12 06:11:21;;;;;;;5.45;5.20;;;;;;;;;;6139983;29;20486;-96
2023/12/12 06:14:26;;;;;;;5.70;5.50;;;;;;;;;;6112648;29;20051;-96
2023/12/12 06:17:28;;;;;;;5.13;4.93;;;;;;;;;;6134314;29;20043;-96
2023/12/12 06:20:35;;;;;;;6.88;6.57;;;;;;;;;;6124768;29;20051;-96
2023/12/12 06:23:41;;;;;;;6.28;5.95;;;;;;;;;;6130399;29;20130;-96
2023/12/12 06:26:46;;;;;;;5.70;5.30;;;;;;;;;;6134703;28;20089;-96
2023/12/12 06:29:50;;;;;;;5.45;5.25;;;;;;;;;;6131010;28;20517;-96
2023/12/12 06:32:55;;;;;;;5.40;5.20;;;;;;;;;;6143235;29;20050;-96
2023/12/12 06:35:58;;;;;;;5.72;5.53;;;;;;;;;;6129307;28;20051;-96
2023/12/12 06:39:02;;;;;;;7.05;6.65;;;;;;;;;;6133708;29;20521;-95
2023/12/12 06:42:05;;;;;;;6.10;5.63;;;;;;;;;;6135874;28;20050;-96
2023/12/12 06:45:10;;;;;;;4.88;4.68;;;;;;;;;;6113527;29;20410;-96
2023/12/12 06:48:12;;;;;;;5.22;4.95;;;;;;;;;;6132968;29;20056;-96
2023/12/12 06:51:15;;;;;;;5.65;5.43;;;;;;;;;;6132859;29;20051;-96
2023/12/12 06:54:17;;;;;;;5.82;5.63;;;;;;;;;;6124038;29;20083;-96
2023/12/12 06:57:19;;;;;;;4.72;4.57;;;;;;;;;;6126602;29;20044;-96
2023/12/12 07:00:22;;;;;;;5.78;5.57;;;;;;;;;;6133487;28;20067;-96
2023/12/12 07:03:24;;;;;;;6.47;6.20;;;;;;;;;;6127449;29;20047;-96
2023/12/12 07:06:26;;;;;;;4.95;4.75;;;;;;;;;;6132761;29;20055;-96
2023/12/12 07:09:29;;;;;;;5.18;4.97;;;;;;;;;;6135568;29;20502;-96
2023/12/12 07:12:31;;;;;;;6.47;6.03;;;;;;;;;;6133593;29;20051;-96
2023/12/12 07:15:36;;;;;;;5.07;4.88;;;;;;;;;;6145836;29;20393;-96
2023/12/12 07:18:42;;;;;;;5.28;5.07;;;;;;;;;;6135062;29;20059;-96
2023/12/12 07:21:44;;;;;;;4.68;4.57;;;;;;;;;;6136229;29;20070;-96
2023/12/12 07:24:47;;;;;;;5.22;5.05;;;;;;;;;;6133088;29;20134;-96
2023/12/12 07:27:50;;;;;;;6.13;5.88;;;;;;;;;;6140600;29;20075;-96
2023/12/12 07:30:53;;;;;;;4.72;4.53;;;;;;;;;;6131044;29;20142;-96
2023/12/12 07:33:58;;;;;;;5.55;5.18;;;;;;;;;;6132369;29;20179;-96
2023/12/12 07:37:06;;;;;;;6.25;5.72;;;;;;;;;;6120629;29;20047;-96
2023/12/12 07:40:08;;;;;;;6.47;6.28;;;;;;;;;;6136938;29;20060;-96
2023/12/12 07:43:13;;;;;;;5.22;5.03;;;;;;;;;;6138270;29;20059;-96
2023/12/12 07:46:15;;;;;;;4.40;4.30;;;;;;;;;;6130111;29;20102;-96
2023/12/12 07:49:19;;;;;;;5.45;5.15;;;;;;;;;;6128371;29;20066;-96
2023/12/12 07:52:22;;;;;;;5.45;5.22;;;;;;;;;;6134069;29;20179;-96
2023/12/12 07:55:25;;;;;;;5.95;5.60;;;;;;;;;;6133326;29;20089;-96
2023/12/12 07:58:28;;;;;;;6.40;5.47;;;;;;;;;;6135252;29;20043;-96
2023/12/12 08:01:30;;;;;;;5.40;5.20;;;;;;;;;;6132249;29;20048;-96
2023/12/12 08:04:32;;;;;;;5.38;5.18;;;;;;;;;;6134709;29;20075;-96
2023/12/12 08:07:35;;;;;;;5.32;5.13;;;;;;;;;;6139129;29;20051;-95
2023/12/12 08:10:38;;;;;;;5.90;5.65;;;;;;;;;;6134412;28;20047;-96
2023/12/12 08:13:40;;;;;;;4.75;4.55;;;;;;;;;;6131425;29;20035;-96
2023/12/12 08:16:43;;;;;;;5.28;5.07;;;;;;;;;;6127953;29;20122;-96
2023/12/12 08:19:47;;;;;;;5.10;4.90;;;;;;;;;;6127354;29;20046;-95
2023/12/12 08:22:49;;;;;;;7.13;6.78;;;;;;;;;;6135103;29;20183;-95
2023/12/12 08:25:51;;;;;;;5.28;5.07;;;;;;;;;;6139409;29;20490;-95
2023/12/12 08:28:54;;;;;;;5.60;5.40;;;;;;;;;;6133048;29;20220;-95
2023/12/12 08:31:56;;;;;;;4.60;4.50;;;;;;;;;;6129600;29;20059;-94
2023/12/12 08:34:58;;;;;;;5.82;5.53;;;;;;;;;;6130895;29;20502;-94
2023/12/12 08:38:01;;;;;;;5.30;5.10;;;;;;;;;;6130885;29;20035;-94
2023/12/12 08:41:03;;;;;;;10.38;4.97;;;;;;;;;;6129195;29;20047;-91
2023/12/12 08:44:08;;;;;;;5.53;5.32;;;;;;;;;;6143039;29;20051;-91
2023/12/12 08:47:10;;;;;;;6.43;6.07;;;;;;;;;;6135952;28;20043;-91
2023/12/12 08:50:13;;;;;;;5.78;5.57;;;;;;;;;;6127467;29;20429;-90
2023/12/12 08:53:16;;;;;;;5.28;5.07;;;;;;;;;;6141894;28;20474;-90
2023/12/12 08:56:18;;;;;;;5.50;5.18;;;;;;;;;;6139624;29;20039;-90
2023/12/12 08:59:21;;;;;;;5.30;5.10;;;;;;;;;;6135134;29;20530;-90
2023/12/12 09:02:22;;;;;;;5.28;5.07;;;;;;;;;;6130486;29;20457;-90
2023/12/12 09:05:24;;;;;;;5.95;5.65;;;;;;;;;;6134124;29;20035;-90
2023/12/12 09:08:28;;;;;;;5.85;5.65;;;;;;;;;;6116938;29;20170;-90
2023/12/12 09:11:30;;;;;;;6.70;6.35;;;;;;;;;;6131177;29;20487;-91
2023/12/12 09:14:32;;;;;;;5.70;5.50;;;;;;;;;;6137116;29;20051;-91
2023/12/12 09:17:34;;;;;;;5.88;5.68;;;;;;;;;;6128229;29;20043;-90
2023/12/12 09:20:36;;;;;;;6.10;5.85;;;;;;;;;;6134381;29;20047;-90
2023/12/12 09:23:39;;;;;;;5.22;5.03;;;;;;;;;;6121442;29;20058;-91
2023/12/12 09:26:42;;;;;;;5.93;5.63;;;;;;;;;;6134139;29;20146;-91
2023/12/12 09:29:44;;;;;;;5.38;5.18;;;;;;;;;;6118065;29;20044;-90
2023/12/12 09:32:46;;;;;;;6.13;5.78;;;;;;;;;;6132227;29;20090;-90
2023/12/12 09:35:48;;;;;;;7.60;6.45;;;;;;;;;;6135472;29;20067;-89
2023/12/12 09:38:50;;;;;;;6.82;6.50;;;;;;;;;;6128560;29;20083;-89
2023/12/12 09:41:52;;;;;;;7.13;6.78;;;;;;;;;;6135199;29;20392;-89
2023/12/12 09:44:58;;;;;;;8.25;7.68;;;;;;;;;;6134991;28;20058;-89
2023/12/12 09:48:00;;;;;;;5.93;5.72;;;;;;;;;;6130570;29;20055;-89
2023/12/12 09:51:03;;;;;;;6.85;6.45;;;;;;;;;;6132647;29;20055;-89
2023/12/12 09:54:07;;;;;;;7.40;7.10;;;;;;;;;;6135258;29;20058;-89
2023/12/12 09:57:11;;;;;;;6.30;5.78;;;;;;;;;;6130252;29;20066;-89
2023/12/12 10:00:14;;;;;;;6.90;6.45;;;;;;;;;;6128791;29;20117;-89
2023/12/12 10:03:17;;;;;;;6.45;6.15;;;;;;;;;;6128690;28;20039;-89
2023/12/12 10:06:18;;;;;;;8.25;7.65;;;;;;;;;;6127892;29;20146;-89
2023/12/12 10:09:26;;;;;;;6.80;6.50;;;;;;;;;;6133725;29;20126;-89
2023/12/12 10:12:28;;;;;;;6.72;6.43;;;;;;;;;;6125545;29;20583;-89
2023/12/12 10:15:33;;;;;;;5.88;5.53;;;;;;;;;;6130846;29;20485;-89
2023/12/12 10:18:34;;;;;;;7.63;7.07;;;;;;;;;;6132729;29;20084;-89
2023/12/12 10:21:36;;;;;;;7.38;6.95;;;;;;;;;;6127284;29;20051;-89
2023/12/12 10:24:40;;;;;;;8.15;7.35;;;;;;;;;;6136201;29;20416;-90
2023/12/12 10:27:42;;;;;;;6.43;6.13;;;;;;;;;;6133344;29;20050;-89
2023/12/12 10:30:44;;;;;;;6.95;6.45;;;;;;;;;;6135802;29;20054;-90
2023/12/12 10:33:47;;;;;;;5.80;5.50;;;;;;;;;;6135818;29;20101;-89
2023/12/12 10:36:49;;;;;;;6.53;6.10;;;;;;;;;;6137040;29;20043;-89
2023/12/12 10:39:52;;;;;;;5.45;5.25;;;;;;;;;;6132975;29;20075;-90
2023/12/12 10:42:55;;;;;;;6.57;6.05;;;;;;;;;;6136496;29;20055;-90
2023/12/12 10:45:57;;;;;;;9.00;6.35;;;;;;;;;;6134677;29;20058;-90
2023/12/12 10:49:00;;;;;;;6.70;6.38;;;;;;;;;;6130673;29;20418;-90
2023/12/12 10:52:05;;;;;;;6.30;6.00;;;;;;;;;;6139975;29;20046;-90
2023/12/12 10:55:12;;;;;;;7.47;6.57;;;;;;;;;;6136792;29;20039;-90
2023/12/12 10:58:14;;;;;;;6.55;6.13;;;;;;;;;;6130759;29;20059;-90
2023/12/12 11:01:17;;;;;;;5.55;5.32;;;;;;;;;;6148853;28;20171;-90
2023/12/12 11:04:20;;;;;;;6.63;6.32;;;;;;;;;;6133836;29;20085;-90
2023/12/12 11:07:22;;;;;;;5.05;4.88;;;;;;;;;;6129718;29;20110;-91
2023/12/12 11:10:24;;;;;;;5.60;5.38;;;;;;;;;;6142347;29;20378;-90
2023/12/12 11:13:28;;;;;;;5.75;5.35;;;;;;;;;;6130658;29;20458;-90
2023/12/12 11:16:30;;;;;;;5.22;5.03;;;;;;;;;;6124164;29;20092;-91
2023/12/12 11:19:32;;;;;;;5.13;4.93;;;;;;;;;;6131458;29;20417;-91
2023/12/12 11:22:45;;;;;;;6.38;6.05;;;;;;;;;;6132928;29;20403;-89
2023/12/12 11:25:47;;;;;;;5.30;4.67;;;;;;;;;;6129696;29;20058;-91
2023/12/12 11:28:49;;;;;;;6.57;6.20;;;;;;;;;;6116951;29;20510;-91
2023/12/12 11:32:01;;;;;;;5.70;5.50;;;;;;;;;;6132969;29;20039;-91
2023/12/12 11:35:06;;;;;;;6.30;5.90;;;;;;;;;;6136119;29;20039;-91
2023/12/12 11:38:27;;;;;;;6.55;6.18;;;;;;;;;;6119510;29;20051;-91
2023/12/12 11:41:29;;;;;;;6.25;5.88;;;;;;;;;;6133033;29;20197;-90
2023/12/12 11:44:46;;;;;;;6.70;6.30;;;;;;;;;;6131543;29;20051;-91
2023/12/12 11:47:48;;;;;;;9.50;6.25;;;;;;;;;;6132150;29;20051;-91
2023/12/12 11:50:50;;;;;;;6.07;5.78;;;;;;;;;;6131894;29;20406;-91
2023/12/12 11:53:53;;;;;;;5.72;5.53;;;;;;;;;;6148931;28;20565;-91
2023/12/12 11:56:57;;;;;;;6.68;6.30;;;;;;;;;;6119203;29;20048;-90
2023/12/12 11:59:59;;;;;;;6.03;5.82;;;;;;;;;;6142706;29;20422;-91
2023/12/12 12:03:02;;;;;;;7.15;6.65;;;;;;;;;;6128674;29;20075;-91
2023/12/12 12:06:03;;;;;;;6.07;5.72;;;;;;;;;;6139022;29;20489;-91
2023/12/12 12:09:12;;;;;;;6.90;6.45;;;;;;;;;;6132909;29;20051;-91
2023/12/12 12:12:15;;;;;;;7.90;7.60;;;;;;;;;;6138987;29;20043;-91
2023/12/12 12:15:17;;;;;;;7.93;6.07;;;;;;;;;;6137391;29;20410;-91
2023/12/12 12:18:26;;;;;;;5.85;5.55;;;;;;;;;;6136541;29;20082;-91
2023/12/12 12:21:28;;;;;;;5.43;5.22;;;;;;;;;;6136197;29;20043;-91
2023/12/12 12:24:30;;;;;;;6.35;5.88;;;;;;;;;;6135885;29;20839;-91
2023/12/12 12:27:34;;;;;;;8.95;7.25;;;;;;;;;;6135690;29;20039;-91
2023/12/12 12:30:46;;;;;;;5.97;5.68;;;;;;;;;;6108450;29;20048;-91
2023/12/12 12:33:48;;;;;;;6.72;6.32;;;;;;;;;;6134021;29;20490;-91
2023/12/12 12:36:51;;;;;;;7.05;6.70;;;;;;;;;;6135392;29;20094;-92
2023/12/12 12:39:56;;;;;;;6.38;6.07;;;;;;;;;;6124981;29;20067;-92
2023/12/12 12:42:58;;;;;;;8.38;5.63;;;;;;;;;;6112568;29;20419;-92
2023/12/12 12:46:06;;;;;;;16.23;5.53;;;;;;;;;;6136736;29;20494;-92
2023/12/12 12:49:08;;;;;;;5.90;5.70;;;;;;;;;;6137225;29;20090;-91
2023/12/12 12:52:10;;;;;;;6.00;5.70;;;;;;;;;;6140869;29;20049;-92
2023/12/12 12:55:12;;;;;;;5.32;5.13;;;;;;;;;;6115332;29;20078;-92
2023/12/12 12:58:15;;;;;;;5.20;5.00;;;;;;;;;;6134516;28;20043;-92
2023/12/12 13:01:17;;;;;;;5.03;4.82;;;;;;;;;;6127389;29;20109;-92
2023/12/12 13:04:19;;;;;;;5.35;4.80;;;;;;;;;;6130995;29;20059;-92
2023/12/12 13:07:21;;;;;;;4.97;4.80;;;;;;;;;;6129310;29;20483;-92
2023/12/12 13:10:24;;;;;;;5.55;5.25;;;;;;;;;;6124925;29;20428;-92
2023/12/12 13:13:44;;;;;;;6.22;5.97;;;;;;;;;;6124352;29;20545;-93
2023/12/12 13:16:46;;;;;;;5.55;5.15;;;;;;;;;;6135423;29;20354;-92
2023/12/12 13:19:48;;;;;;;5.65;5.15;;;;;;;;;;6139103;29;20118;-92
2023/12/12 13:22:50;;;;;;;6.53;5.88;;;;;;;;;;6129270;29;20060;-92
2023/12/12 13:25:52;;;;;;;5.70;5.50;;;;;;;;;;6131838;29;20047;-92
2023/12/12 13:28:55;;;;;;;5.70;5.40;;;;;;;;;;6130730;29;20051;-92
2023/12/12 13:31:57;;;;;;;5.85;5.65;;;;;;;;;;6127271;29;20039;-92
2023/12/12 13:34:59;;;;;;;5.38;5.18;;;;;;;;;;6137261;28;20044;-92
2023/12/12 13:38:01;;;;;;;5.18;4.97;;;;;;;;;;6107877;29;20055;-92
2023/12/12 13:41:04;;;;;;;5.50;5.30;;;;;;;;;;6123172;29;20190;-92
2023/12/12 13:44:06;;;;;;;5.53;5.32;;;;;;;;;;6122505;29;20035;-92
2023/12/12 13:47:07;;;;;;;6.03;5.78;;;;;;;;;;6124881;29;20098;-92
2023/12/12 13:50:09;;;;;;;4.43;4.32;;;;;;;;;;6132025;29;20043;-92
2023/12/12 13:53:12;;;;;;;6.13;5.82;;;;;;;;;;6135716;29;20079;-92
2023/12/12 13:56:13;;;;;;;5.15;4.95;;;;;;;;;;6112160;29;20091;-93
2023/12/12 13:59:15;;;;;;;5.13;4.90;;;;;;;;;;6131290;29;20050;-93
2023/12/12 14:02:17;;;;;;;4.60;4.50;;;;;;;;;;6128588;28;20067;-92
2023/12/12 14:05:33;;;;;;;4.75;4.65;;;;;;;;;;6130622;29;20051;-93
2023/12/12 14:08:35;;;;;;;4.63;4.53;;;;;;;;;;6134672;28;20055;-93
2023/12/12 14:11:37;;;;;;;5.22;5.03;;;;;;;;;;6127305;29;20043;-94
2023/12/12 14:14:39;;;;;;;4.78;4.60;;;;;;;;;;6128631;29;20074;-93
2023/12/12 14:17:40;;;;;;;4.53;4.43;;;;;;;;;;6129757;29;20039;-93
2023/12/12 14:20:42;;;;;;;5.68;5.47;;;;;;;;;;6133342;29;20042;-92
2023/12/12 14:23:44;;;;;;;4.85;4.75;;;;;;;;;;6127442;29;20553;-94
2023/12/12 14:26:46;;;;;;;4.97;4.68;;;;;;;;;;6129218;29;20070;-93
2023/12/12 14:29:48;;;;;;;6.55;5.65;;;;;;;;;;6128627;29;20050;-93
2023/12/12 14:32:50;;;;;;;4.45;4.35;;;;;;;;;;6138495;29;20051;-93
2023/12/12 14:35:52;;;;;;;5.55;5.35;;;;;;;;;;6133756;29;20039;-93
2023/12/12 14:38:55;;;;;;;5.00;4.80;;;;;;;;;;6132002;29;20122;-93
2023/12/12 14:41:57;;;;;;;4.80;4.60;;;;;;;;;;6137160;29;20122;-93
2023/12/12 14:44:59;;;;;;;10.85;4.68;;;;;;;;;;6129068;29;20058;-93
2023/12/12 14:48:01;;;;;;;4.72;4.60;;;;;;;;;;6126066;29;20043;-94
2023/12/12 14:51:03;;;;;;;4.93;4.72;;;;;;;;;;6126325;29;20441;-93
2023/12/12 14:54:05;;;;;;;4.40;4.28;;;;;;;;;;6132285;28;20183;-93
2023/12/12 14:57:07;;;;;;;5.32;5.13;;;;;;;;;;6132127;29;20078;-94
2023/12/12 15:00:22;;;;;;;5.03;4.82;;;;;;;;;;6132501;29;20045;-93
2023/12/12 15:03:28;;;;;;;5.07;4.88;;;;;;;;;;6119646;29;20122;-94
2023/12/12 15:06:30;;;;;;;5.32;5.13;;;;;;;;;;6130778;29;20102;-92
2023/12/12 15:09:32;;;;;;;6.00;5.60;;;;;;;;;;6134550;29;20514;-94
2023/12/12 15:12:35;;;;;;;5.65;5.45;;;;;;;;;;6133068;29;20097;-93
2023/12/12 15:15:37;;;;;;;4.82;4.63;;;;;;;;;;6132912;28;20587;-93
2023/12/12 15:18:39;;;;;;;5.45;5.25;;;;;;;;;;6115564;29;20050;-94
2023/12/12 15:21:41;;;;;;;4.97;4.78;;;;;;;;;;6134664;28;20043;-93
2023/12/12 15:24:43;;;;;;;4.32;4.22;;;;;;;;;;6140340;28;20378;-94
2023/12/12 15:27:45;;;;;;;5.38;5.07;;;;;;;;;;6132400;29;20047;-93
2023/12/12 15:31:07;;;;;;;4.68;4.57;;;;;;;;;;6134642;29;20036;-94
2023/12/12 15:34:10;;;;;;;4.80;4.70;;;;;;;;;;6127945;29;20051;-93
2023/12/12 15:37:12;;;;;;;6.55;6.15;;;;;;;;;;6127613;29;20279;-93
2023/12/12 15:40:15;;;;;;;7.47;5.13;;;;;;;;;;6124407;29;20058;-93
2023/12/12 15:43:17;;;;;;;5.28;5.03;;;;;;;;;;6141810;29;20410;-94
2023/12/12 15:46:19;;;;;;;4.82;4.63;;;;;;;;;;6134077;29;20047;-93
2023/12/12 15:49:21;;;;;;;5.93;5.72;;;;;;;;;;6134281;29;20051;-94
2023/12/12 15:52:23;;;;;;;5.43;5.13;;;;;;;;;;6133584;29;20050;-93
2023/12/12 15:55:25;;;;;;;5.65;5.45;;;;;;;;;;6126118;29;20050;-93
2023/12/12 15:58:28;;;;;;;7.88;5.25;;;;;;;;;;6133752;29;20126;-94
2023/12/12 16:01:34;;;;;;;5.15;4.95;;;;;;;;;;6133652;29;20054;-93
2023/12/12 16:04:36;;;;;;;5.05;4.85;;;;;;;;;;6127392;29;20039;-93
2023/12/12 16:07:39;;;;;;;6.30;5.28;;;;;;;;;;6131678;29;20039;-93
2023/12/12 16:10:41;;;;;;;5.22;4.95;;;;;;;;;;6135096;29;20723;-94
2023/12/12 16:13:43;;;;;;;6.65;6.20;;;;;;;;;;6130703;29;20048;-93
2023/12/12 16:16:45;;;;;;;5.93;5.72;;;;;;;;;;6137080;29;20151;-94
2023/12/12 16:19:48;;;;;;;4.53;4.43;;;;;;;;;;6137565;29;20071;-93
2023/12/12 16:22:50;;;;;;;5.63;5.32;;;;;;;;;;6126959;29;20058;-94
2023/12/12 16:25:53;;;;;;;5.00;4.78;;;;;;;;;;6135618;29;20055;-94
2023/12/12 16:28:55;;;;;;;4.68;4.47;;;;;;;;;;6127288;29;20078;-93
2023/12/12 16:31:56;;;;;;;5.97;5.63;;;;;;;;;;6130812;29;20237;-94
2023/12/12 16:35:01;;;;;;;5.18;4.90;;;;;;;;;;6131647;29;20043;-93
2023/12/12 16:38:03;;;;;;;4.75;4.65;;;;;;;;;;6127031;29;20122;-94
2023/12/12 16:41:07;;;;;;;6.40;6.10;;;;;;;;;;6132037;29;20057;-93
2023/12/12 16:44:08;;;;;;;5.10;4.90;;;;;;;;;;6135418;29;20056;-94
2023/12/12 16:47:10;;;;;;;5.20;5.00;;;;;;;;;;6134701;29;20106;-93
2023/12/12 16:50:13;;;;;;;5.80;5.40;;;;;;;;;;6127907;28;20050;-93
2023/12/12 16:53:14;;;;;;;5.25;5.05;;;;;;;;;;6133706;29;20059;-94
2023/12/12 16:56:20;;;;;;;6.40;6.10;;;;;;;;;;6134863;29;20425;-93
2023/12/12 16:59:21;;;;;;;6.40;6.00;;;;;;;;;;6126626;29;20050;-94
2023/12/12 17:02:23;;;;;;;5.57;5.32;;;;;;;;;;6118707;29;20040;-93
2023/12/12 17:05:25;;;;;;;5.40;5.20;;;;;;;;;;6130582;29;20086;-93
2023/12/12 17:08:28;;;;;;;6.15;5.85;;;;;;;;;;6133774;29;20118;-92
2023/12/12 17:11:30;;;;;;;5.75;5.53;;;;;;;;;;6131683;29;20462;-93
2023/12/12 17:14:32;;;;;;;5.47;5.28;;;;;;;;;;6119426;29;20557;-93
2023/12/12 17:17:35;;;;;;;5.63;5.40;;;;;;;;;;6132709;29;20062;-94
2023/12/12 17:20:37;;;;;;;5.82;5.43;;;;;;;;;;6136637;29;20039;-93
2023/12/12 17:23:38;;;;;;;6.63;6.18;;;;;;;;;;6139151;29;20046;-93
2023/12/12 17:26:40;;;;;;;5.53;5.15;;;;;;;;;;6131813;29;20047;-93
2023/12/12 17:29:42;;;;;;;6.00;5.70;;;;;;;;;;6126097;29;20051;-93
2023/12/12 17:32:45;;;;;;;7.38;6.88;;;;;;;;;;6121203;29;20418;-92
2023/12/12 17:35:49;;;;;;;5.82;5.63;;;;;;;;;;6132323;29;20163;-94
2023/12/12 17:38:50;;;;;;;5.63;5.32;;;;;;;;;;6122519;29;20051;-93
2023/12/12 17:41:52;;;;;;;7.18;5.82;;;;;;;;;;6133210;29;20137;-92
2023/12/12 17:44:54;;;;;;;6.57;6.25;;;;;;;;;;6114920;29;20789;-93
2023/12/12 17:47:55;;;;;;;5.97;5.68;;;;;;;;;;6132308;29;20488;-94
2023/12/12 17:50:57;;;;;;;5.85;5.63;;;;;;;;;;6128424;29;20078;-94
2023/12/12 17:54:01;;;;;;;5.70;5.30;;;;;;;;;;6114143;29;20043;-93
2023/12/12 17:57:04;;;;;;;6.15;5.85;;;;;;;;;;6128485;28;20090;-93
2023/12/12 18:00:14;;;;;;;5.57;5.38;;;;;;;;;;6126615;29;20046;-93
2023/12/12 18:03:16;;;;;;;6.43;6.13;;;;;;;;;;6131262;29;20573;-93
2023/12/12 18:06:21;;;;;;;5.43;5.22;;;;;;;;;;6129748;29;20043;-93
2023/12/12 18:09:24;;;;;;;5.68;5.47;;;;;;;;;;6134963;28;20048;-93
2023/12/12 18:12:28;;;;;;;5.25;5.05;;;;;;;;;;6133212;29;20339;-94
2023/12/12 18:15:30;;;;;;;7.25;6.65;;;;;;;;;;6132233;29;20067;-93
2023/12/12 18:18:32;;;;;;;6.97;6.30;;;;;;;;;;6134337;29;20039;-93
2023/12/12 18:21:34;;;;;;;6.53;6.20;;;;;;;;;;6131499;29;20043;-92
2023/12/12 18:24:36;;;;;;;6.15;5.53;;;;;;;;;;6121258;29;20125;-93
2023/12/12 18:27:38;;;;;;;5.28;4.97;;;;;;;;;;6134434;29;20043;-92
2023/12/12 18:30:46;;;;;;;4.88;4.72;;;;;;;;;;6133199;29;20114;-93
2023/12/12 18:33:49;;;;;;;5.18;4.97;;;;;;;;;;6134081;29;20126;-92
2023/12/12 18:36:51;;;;;;;6.28;6.00;;;;;;;;;;6119101;29;20069;-88
2023/12/12 18:39:53;;;;;;;5.70;5.47;;;;;;;;;;6127737;29;20044;-89
2023/12/12 18:42:55;;;;;;;5.88;5.57;;;;;;;;;;6131168;29;20054;-89
2023/12/12 18:45:57;;;;;;;6.00;5.70;;;;;;;;;;6134795;29;20070;-90
2023/12/12 18:48:59;;;;;;;6.00;5.80;;;;;;;;;;6127102;29;20047;-92
2023/12/12 18:52:02;;;;;;;5.32;5.03;;;;;;;;;;6138129;29;20055;-88
2023/12/12 18:55:05;;;;;;;5.68;5.47;;;;;;;;;;6135476;29;20047;-89
2023/12/12 18:58:07;;;;;;;5.30;5.10;;;;;;;;;;6130066;29;20044;-90
2023/12/12 19:01:10;;;;;;;7.18;5.82;;;;;;;;;;6137701;29;20170;-90
2023/12/12 19:04:12;;;;;;;5.38;5.18;;;;;;;;;;6131979;29;20043;-90
2023/12/12 19:07:14;;;;;;;7.20;6.90;;;;;;;;;;6126226;29;20193;-90
2023/12/12 19:10:16;;;;;;;4.55;4.45;;;;;;;;;;6139687;29;20062;-90